San Gwann — 9HYT6 — position and weather

sailwx.info

Track history (hours):
 
Tides and Currents Weather Stations Pressure Air Temp Water Temp Dewpoint Dewpoint Depression Visibility Wind Speed Wind Dir Waves Ship Positions

San Gwann

Last reported at 2018-Jul-20 03:01 UTC. Time now 2018-Jul-20 03:09 UTC.
Position N 25°46' W 080°11'.

Length 51 m; draft 2.2 m.

Type: High speed craft. MMSI: 248984000.

Date/timePositionNaut miles runAvg speedWind from/ knotsBaromVisibWave heightAir tempDewpointWater temp
2018-Jul-20 03:01N 25°46' W 080°11'0 0.0
2018-Jul-20 02:30N 25°46' W 080°11'0 0.0
2018-Jul-20 02:01N 25°46' W 080°11'0 0.0
2018-Jul-20 01:31N 25°46' W 080°11'0 0.0
2018-Jul-20 01:01N 25°46' W 080°11'0 0.0
2018-Jul-20 00:31N 25°46' W 080°11'1 2.6
2018-Jul-20 00:01N 25°46' W 080°09'1019.8
2018-Jul-19 23:31N 25°46' W 079°58'13 1.5
2018-Jul-19 14:48N 25°46' W 079°44'826.0
2018-Jul-19 14:30N 25°46' W 079°52'1716.5
2018-Jul-19 13:30N 25°46' W 080°11'0 0.0
2018-Jul-19 13:00N 25°46' W 080°11'0 0.0
2018-Jul-19 12:30N 25°46' W 080°11'0 0.0
2018-Jul-19 12:00N 25°46' W 080°11'0 0.0
2018-Jul-19 11:30N 25°46' W 080°11'0 0.0
2018-Jul-19 11:00N 25°46' W 080°11'0 0.0
2018-Jul-19 10:30N 25°46' W 080°11'0 0.0
2018-Jul-19 10:01N 25°46' W 080°11'0 0.0
2018-Jul-19 09:30N 25°46' W 080°11'0 0.0
2018-Jul-19 09:00N 25°46' W 080°11'0 0.0
2018-Jul-19 08:31N 25°46' W 080°11'0 0.0
2018-Jul-19 08:00N 25°46' W 080°11'0 0.0
2018-Jul-19 07:31N 25°46' W 080°11'0 0.0
2018-Jul-19 07:00N 25°46' W 080°11'0 0.0
2018-Jul-19 06:30N 25°46' W 080°11'0 0.0
2018-Jul-19 06:00N 25°46' W 080°11'0 0.0
2018-Jul-19 05:30N 25°46' W 080°11'0 0.0
2018-Jul-19 05:00N 25°46' W 080°11'0 0.0
2018-Jul-19 04:30N 25°46' W 080°11'0 0.0
2018-Jul-19 04:00N 25°46' W 080°11'0 0.0
2018-Jul-19 03:30N 25°46' W 080°11'0 0.0
2018-Jul-19 03:00N 25°46' W 080°11'0 0.0
2018-Jul-19 02:30N 25°46' W 080°11'0 0.0
2018-Jul-19 02:00N 25°46' W 080°11'0 0.0
2018-Jul-19 01:30N 25°46' W 080°11'0 0.0
2018-Jul-19 01:00N 25°46' W 080°11'0 0.8
2018-Jul-19 00:30N 25°46' W 080°10'714.9
2018-Jul-19 00:00N 25°46' W 080°02'15 1.6
2018-Jul-18 14:56N 25°46' W 079°46'1024.4
2018-Jul-18 14:30N 25°46' W 079°57'1020.8
2018-Jul-18 14:00N 25°46' W 080°09'2 3.6
2018-Jul-18 13:31N 25°46' W 080°11'0 0.0
2018-Jul-18 13:00N 25°46' W 080°11'0 0.0
2018-Jul-18 12:31N 25°46' W 080°11'0 0.0
2018-Jul-18 12:00N 25°46' W 080°11'0 0.0
2018-Jul-18 11:30N 25°46' W 080°11'0 0.0
2018-Jul-18 10:30N 25°46' W 080°11'0 0.0
2018-Jul-18 10:00N 25°46' W 080°11'0 0.0
2018-Jul-18 09:30N 25°46' W 080°11'0 0.0
2018-Jul-18 09:01N 25°46' W 080°11'0 0.0
2018-Jul-18 08:31N 25°46' W 080°11'0 0.0
2018-Jul-18 08:00N 25°46' W 080°11'0 0.0
2018-Jul-18 07:30N 25°46' W 080°11'0 0.0
2018-Jul-18 07:00N 25°46' W 080°11'0 0.0
2018-Jul-18 06:31N 25°46' W 080°11'0 0.0
2018-Jul-18 06:00N 25°46' W 080°11'0 0.0
2018-Jul-18 05:30N 25°46' W 080°11'0 0.0
2018-Jul-18 05:00N 25°46' W 080°11'0 0.0
2018-Jul-18 04:30N 25°46' W 080°11'0 0.0
2018-Jul-18 04:00N 25°46' W 080°11'0 0.0
2018-Jul-18 03:30N 25°46' W 080°11'0 0.0
2018-Jul-18 03:00N 25°46' W 080°11'0 0.0
2018-Jul-18 02:30N 25°46' W 080°11'0 0.0
2018-Jul-18 02:00N 25°46' W 080°11'0 0.0
2018-Jul-18 01:30N 25°46' W 080°11'0 0.0
2018-Jul-18 01:00N 25°46' W 080°11'0 0.0
2018-Jul-18 00:30N 25°46' W 080°11'0 0.0
2018-Jul-18 00:00N 25°46' W 080°11'0 0.0
2018-Jul-17 23:30N 25°46' W 080°11'0 0.0
2018-Jul-17 23:00N 25°46' W 080°11'0 0.0
2018-Jul-17 22:30N 25°46' W 080°11'0 0.0
2018-Jul-17 22:01N 25°46' W 080°11'0 0.0
2018-Jul-17 21:30N 25°46' W 080°11'0 0.0
2018-Jul-17 21:00N 25°46' W 080°11'0 0.0
2018-Jul-17 20:30N 25°46' W 080°11'0 0.0
2018-Jul-17 20:00N 25°46' W 080°11'0 0.0
2018-Jul-17 19:30N 25°46' W 080°11'0 0.0
2018-Jul-17 19:00N 25°46' W 080°11'0 0.0
2018-Jul-17 18:31N 25°46' W 080°11'0 0.0
2018-Jul-17 18:00N 25°46' W 080°11'0 0.0
2018-Jul-17 17:30N 25°46' W 080°11'0 0.0
2018-Jul-17 17:00N 25°46' W 080°11'0 0.0
2018-Jul-17 16:30N 25°46' W 080°11'0 0.0
2018-Jul-17 16:00N 25°46' W 080°11'0 0.0
2018-Jul-17 15:30N 25°46' W 080°11'0 0.0
2018-Jul-17 15:00N 25°46' W 080°11'0 0.0
2018-Jul-17 14:30N 25°46' W 080°11'0 0.0
2018-Jul-17 14:00N 25°46' W 080°11'0 0.0
2018-Jul-17 13:30N 25°46' W 080°11'0 0.0
2018-Jul-17 13:00N 25°46' W 080°11'0 0.0
2018-Jul-17 12:30N 25°46' W 080°11'0 0.0
2018-Jul-17 12:00N 25°46' W 080°11'0 0.0
2018-Jul-17 11:30N 25°46' W 080°11'0 0.0
2018-Jul-17 11:00N 25°46' W 080°11'0 0.0
2018-Jul-17 10:30N 25°46' W 080°11'0 0.0
2018-Jul-17 10:00N 25°46' W 080°11'0 0.0
2018-Jul-17 09:30N 25°46' W 080°11'0 0.0
2018-Jul-17 09:00N 25°46' W 080°11'0 0.0
2018-Jul-17 08:30N 25°46' W 080°11'0 0.0
2018-Jul-17 08:00N 25°46' W 080°11'0 0.0
2018-Jul-17 07:30N 25°46' W 080°11'0 0.0
2018-Jul-17 07:00N 25°46' W 080°11'0 0.0
2018-Jul-17 06:30N 25°46' W 080°11'0 0.0
2018-Jul-17 06:00N 25°46' W 080°11'0 0.0
2018-Jul-17 05:30N 25°46' W 080°11'0 0.0
2018-Jul-17 05:00N 25°46' W 080°11'0 0.0
2018-Jul-17 04:30N 25°46' W 080°11'0 0.0
2018-Jul-17 04:00N 25°46' W 080°11'0 0.0
2018-Jul-17 03:30N 25°46' W 080°11'0 0.0
2018-Jul-17 03:00N 25°46' W 080°11'0 0.0
2018-Jul-17 02:30N 25°46' W 080°11'0 0.0
2018-Jul-17 02:00N 25°46' W 080°11'0 0.0
2018-Jul-17 01:30N 25°46' W 080°11'0 0.0
2018-Jul-17 01:00N 25°46' W 080°11'0 0.0
2018-Jul-17 00:30N 25°46' W 080°11'1614.6
2018-Jul-16 23:27N 25°46' W 079°53'11 1.3
2018-Jul-16 14:53N 25°46' W 079°41'1026.5
2018-Jul-16 14:31N 25°46' W 079°52'1326.0
2018-Jul-16 14:01N 25°46' W 080°06'4 7.9
2018-Jul-16 13:30N 25°46' W 080°11'0 0.0
2018-Jul-16 13:00N 25°46' W 080°11'0 0.0
2018-Jul-16 12:30N 25°46' W 080°11'0 0.0
2018-Jul-16 12:00N 25°46' W 080°11'0 0.0
2018-Jul-16 11:30N 25°46' W 080°11'0 0.0
2018-Jul-16 11:00N 25°46' W 080°11'0 0.0
2018-Jul-16 10:31N 25°46' W 080°11'0 0.0
2018-Jul-16 10:01N 25°46' W 080°11'0 0.0
2018-Jul-16 09:30N 25°46' W 080°11'0 0.0
2018-Jul-16 09:00N 25°46' W 080°11'0 0.0
2018-Jul-16 08:30N 25°46' W 080°11'0 0.0
2018-Jul-16 08:00N 25°46' W 080°11'0 0.0
2018-Jul-16 07:30N 25°46' W 080°11'0 0.0
2018-Jul-16 07:00N 25°46' W 080°11'0 0.0
2018-Jul-16 06:30N 25°46' W 080°11'0 0.0
2018-Jul-16 05:59N 25°46' W 080°11'0 0.0
2018-Jul-16 05:30N 25°46' W 080°11'0 0.0
2018-Jul-16 05:00N 25°46' W 080°11'0 0.0
2018-Jul-16 04:30N 25°46' W 080°11'0 0.0
2018-Jul-16 04:00N 25°46' W 080°11'0 0.0
2018-Jul-16 03:30N 25°46' W 080°11'0 0.0
2018-Jul-16 03:00N 25°46' W 080°11'0 0.0
2018-Jul-16 02:30N 25°46' W 080°11'0 0.0
2018-Jul-16 02:00N 25°46' W 080°11'0 0.0
2018-Jul-16 01:30N 25°46' W 080°11'0 0.0
2018-Jul-16 01:00N 25°46' W 080°11'0 0.1
2018-Jul-16 00:30N 25°46' W 080°11'612.4
2018-Jul-16 00:00N 25°46' W 080°04'16 1.6
2018-Jul-15 14:09N 25°46' W 079°46'426.3
2018-Jul-15 14:00N 25°46' W 079°51'1326.3
2018-Jul-15 13:31N 25°46' W 080°05'5 9.9
2018-Jul-15 13:00N 25°46' W 080°11'0 0.0
2018-Jul-15 12:30N 25°46' W 080°11'0 0.0
2018-Jul-15 12:00N 25°46' W 080°11'0 0.0
2018-Jul-15 11:30N 25°46' W 080°11'0 0.0
2018-Jul-15 11:00N 25°46' W 080°11'0 0.0
2018-Jul-15 10:30N 25°46' W 080°11'0 0.0
2018-Jul-15 10:00N 25°46' W 080°11'0 0.0
2018-Jul-15 09:30N 25°46' W 080°11'0 0.0
2018-Jul-15 09:00N 25°46' W 080°11'0 0.0
2018-Jul-15 08:30N 25°46' W 080°11'0 0.0
2018-Jul-15 08:00N 25°46' W 080°11'0 0.0
2018-Jul-15 07:30N 25°46' W 080°11'0 0.0
2018-Jul-15 07:00N 25°46' W 080°11'0 0.0
2018-Jul-15 06:30N 25°46' W 080°11'0 0.0
2018-Jul-15 06:00N 25°46' W 080°11'0 0.0
2018-Jul-15 05:30N 25°46' W 080°11'0 0.0
2018-Jul-15 05:00N 25°46' W 080°11'0 0.0
2018-Jul-15 04:30N 25°46' W 080°11'0 0.0
2018-Jul-15 04:00N 25°46' W 080°11'0 0.0
2018-Jul-15 03:30N 25°46' W 080°11'0 0.0
2018-Jul-15 03:00N 25°46' W 080°11'0 0.0
2018-Jul-15 02:30N 25°46' W 080°11'0 0.0
2018-Jul-15 02:00N 25°46' W 080°11'0 0.0
2018-Jul-15 01:30N 25°46' W 080°11'0 0.0
2018-Jul-15 01:00N 25°46' W 080°11'0 0.0
2018-Jul-15 00:30N 25°46' W 080°11'4 7.9
2018-Jul-15 00:00N 25°46' W 080°06'19 2.1
2018-Jul-14 14:59N 25°46' W 079°45'2222.3
2018-Jul-14 14:01N 25°46' W 080°09'1 2.9
2018-Jul-14 13:30N 25°46' W 080°11'0 0.0
2018-Jul-14 13:00N 25°46' W 080°11'0 0.0
2018-Jul-14 12:30N 25°46' W 080°11'0 0.0
2018-Jul-14 12:00N 25°46' W 080°11'0 0.0
2018-Jul-14 11:30N 25°46' W 080°11'0 0.0
2018-Jul-14 11:00N 25°46' W 080°11'0 0.0
2018-Jul-14 10:30N 25°46' W 080°11'0 0.0
2018-Jul-14 10:00N 25°46' W 080°11'0 0.0
2018-Jul-14 09:30N 25°46' W 080°11'0 0.0
2018-Jul-14 09:01N 25°46' W 080°11'0 0.0
2018-Jul-14 08:31N 25°46' W 080°11'0 0.0
2018-Jul-14 08:00N 25°46' W 080°11'0 0.0
2018-Jul-14 07:30N 25°46' W 080°11'0 0.0
2018-Jul-14 07:00N 25°46' W 080°11'0 0.0
2018-Jul-14 06:31N 25°46' W 080°11'0 0.0
2018-Jul-14 06:00N 25°46' W 080°11'0 0.0
2018-Jul-14 05:30N 25°46' W 080°11'0 0.0
2018-Jul-14 05:00N 25°46' W 080°11'0 0.0
2018-Jul-14 04:30N 25°46' W 080°11'0 0.0
2018-Jul-14 04:00N 25°46' W 080°11'0 0.0
2018-Jul-14 03:30N 25°46' W 080°11'0 0.0
2018-Jul-14 03:00N 25°46' W 080°11'0 0.0
2018-Jul-14 02:30N 25°46' W 080°11'0 0.0
2018-Jul-14 02:01N 25°46' W 080°11'0 0.0
2018-Jul-14 01:29N 25°46' W 080°11'1 2.1
2018-Jul-14 01:01N 25°46' W 080°10'1019.0
2018-Jul-14 00:30N 25°46' W 079°59'12 1.3
2018-Jul-13 14:56N 25°46' W 079°46'1024.5
2018-Jul-13 14:30N 25°46' W 079°57'1211.9
2018-Jul-13 13:30N 25°46' W 080°11'0 0.0
2018-Jul-13 13:00N 25°46' W 080°11'0 0.0
2018-Jul-13 12:30N 25°46' W 080°11'0 0.0
2018-Jul-13 12:00N 25°46' W 080°11'0 0.0
2018-Jul-13 11:29N 25°46' W 080°11'0 0.0
2018-Jul-13 11:00N 25°46' W 080°11'0 0.0
2018-Jul-13 10:30N 25°46' W 080°11'0 0.0
2018-Jul-13 10:00N 25°46' W 080°11'0 0.0
2018-Jul-13 09:30N 25°46' W 080°11'0 0.0
2018-Jul-13 09:00N 25°46' W 080°11'0 0.0
2018-Jul-13 08:30N 25°46' W 080°11'0 0.0
2018-Jul-13 08:00N 25°46' W 080°11'0 0.0
2018-Jul-13 07:30N 25°46' W 080°11'0 0.0
2018-Jul-13 07:00N 25°46' W 080°11'0 0.0
2018-Jul-13 06:30N 25°46' W 080°11'0 0.0
2018-Jul-13 06:00N 25°46' W 080°11'0 0.0
2018-Jul-13 05:30N 25°46' W 080°11'0 0.0
2018-Jul-13 05:00N 25°46' W 080°11'0 0.0
2018-Jul-13 04:30N 25°46' W 080°11'0 0.0
2018-Jul-13 04:00N 25°46' W 080°11'0 0.0
2018-Jul-13 03:30N 25°46' W 080°11'0 0.0
2018-Jul-13 03:00N 25°46' W 080°11'0 0.0
2018-Jul-13 02:30N 25°46' W 080°11'0 0.0
2018-Jul-13 02:00N 25°46' W 080°11'0 0.0
2018-Jul-13 01:30N 25°46' W 080°11'0 0.0
2018-Jul-13 01:00N 25°46' W 080°11'0 0.0
2018-Jul-13 00:30N 25°46' W 080°11'2 4.2
2018-Jul-13 00:00N 25°46' W 080°08'20 2.0
2018-Jul-12 14:09N 25°46' W 079°46'430.7
2018-Jul-12 14:00N 25°46' W 079°51'1429.0
2018-Jul-12 13:30N 25°46' W 080°07'3 6.8
2018-Jul-12 13:00N 25°46' W 080°11'0 0.0
2018-Jul-12 12:30N 25°46' W 080°11'0 0.0
2018-Jul-12 12:00N 25°46' W 080°11'0 0.0
2018-Jul-12 11:30N 25°46' W 080°11'0 0.0
2018-Jul-12 11:00N 25°46' W 080°11'0 0.0
2018-Jul-12 10:30N 25°46' W 080°11'0 0.0
2018-Jul-12 10:00N 25°46' W 080°11'0 0.0
2018-Jul-12 09:30N 25°46' W 080°11'0 0.0
2018-Jul-12 09:00N 25°46' W 080°11'0 0.0
2018-Jul-12 08:30N 25°46' W 080°11'0 0.0
2018-Jul-12 08:00N 25°46' W 080°11'0 0.0
2018-Jul-12 07:30N 25°46' W 080°11'0 0.0
2018-Jul-12 07:00N 25°46' W 080°11'0 0.0
2018-Jul-12 06:30N 25°46' W 080°11'0 0.0
2018-Jul-12 06:00N 25°46' W 080°11'0 0.0
2018-Jul-12 05:30N 25°46' W 080°11'0 0.0
2018-Jul-12 05:00N 25°46' W 080°11'0 0.0
2018-Jul-12 04:30N 25°46' W 080°11'0 0.0
2018-Jul-12 04:00N 25°46' W 080°11'0 0.0
2018-Jul-12 03:30N 25°46' W 080°11'0 0.0
2018-Jul-12 03:00N 25°46' W 080°11'0 0.0
2018-Jul-12 02:30N 25°46' W 080°11'0 0.0
2018-Jul-12 02:00N 25°46' W 080°11'0 0.0
2018-Jul-12 01:30N 25°46' W 080°11'0 0.0
2018-Jul-12 01:00N 25°46' W 080°11'0 0.0
2018-Jul-12 00:30N 25°46' W 080°11'3 7.0
2018-Jul-12 00:01N 25°46' W 080°07'21 2.2
2018-Jul-11 14:35N 25°46' W 079°43'225.3
2018-Jul-11 14:30N 25°46' W 079°45'1326.0
2018-Jul-11 14:00N 25°46' W 079°60'918.6
2018-Jul-11 13:30N 25°46' W 080°10'1 1.0
2018-Jul-11 13:00N 25°46' W 080°11'0 0.0
2018-Jul-11 12:30N 25°46' W 080°11'0 0.0
2018-Jul-11 12:00N 25°46' W 080°11'0 0.0
2018-Jul-11 11:30N 25°46' W 080°11'0 0.0
2018-Jul-11 11:00N 25°46' W 080°11'0 0.0
2018-Jul-11 10:30N 25°46' W 080°11'0 0.0
2018-Jul-11 10:00N 25°46' W 080°11'0 0.0
2018-Jul-11 09:30N 25°46' W 080°11'0 0.0
2018-Jul-11 09:00N 25°46' W 080°11'0 0.0
2018-Jul-11 08:30N 25°46' W 080°11'0 0.0
2018-Jul-11 08:00N 25°46' W 080°11'0 0.0
2018-Jul-11 07:30N 25°46' W 080°11'0 0.0
2018-Jul-11 07:00N 25°46' W 080°11'0 0.0
2018-Jul-11 06:30N 25°46' W 080°11'0 0.0
2018-Jul-11 06:01N 25°46' W 080°11'0 0.0
2018-Jul-11 05:30N 25°46' W 080°11'0 0.0
2018-Jul-11 05:00N 25°46' W 080°11'0 0.0
2018-Jul-11 04:30N 25°46' W 080°11'0 0.0
2018-Jul-11 04:00N 25°46' W 080°11'0 0.0
2018-Jul-11 03:30N 25°46' W 080°11'0 0.0
2018-Jul-11 03:00N 25°46' W 080°11'0 0.0
2018-Jul-11 02:30N 25°46' W 080°11'0 0.0
2018-Jul-11 01:59N 25°46' W 080°11'0 0.0
2018-Jul-11 01:30N 25°46' W 080°11'0 0.0
2018-Jul-11 01:00N 25°46' W 080°11'0 0.0
2018-Jul-11 00:30N 25°46' W 080°11'0 0.0
2018-Jul-11 00:01N 25°46' W 080°11'0 0.0
2018-Jul-10 23:30N 25°46' W 080°11'0 0.0
2018-Jul-10 23:00N 25°46' W 080°11'0 0.0
2018-Jul-10 22:30N 25°46' W 080°11'0 0.0
2018-Jul-10 22:01N 25°46' W 080°11'0 0.0
2018-Jul-10 21:30N 25°46' W 080°11'0 0.0
2018-Jul-10 21:00N 25°46' W 080°11'0 0.0
2018-Jul-10 20:30N 25°46' W 080°11'0 0.0
2018-Jul-10 20:00N 25°46' W 080°11'0 0.0
2018-Jul-10 19:30N 25°46' W 080°11'0 0.0
2018-Jul-10 19:00N 25°46' W 080°11'0 0.0
2018-Jul-10 18:30N 25°46' W 080°11'0 0.0
2018-Jul-10 18:00N 25°46' W 080°11'0 0.0
2018-Jul-10 17:30N 25°46' W 080°11'0 0.0
2018-Jul-10 17:00N 25°46' W 080°11'0 0.0
2018-Jul-10 16:30N 25°46' W 080°11'0 0.0
2018-Jul-10 16:00N 25°46' W 080°11'0 0.0
2018-Jul-10 15:30N 25°46' W 080°11'0 0.0
2018-Jul-10 15:00N 25°46' W 080°11'0 0.0
2018-Jul-10 14:30N 25°46' W 080°11'0 0.0
2018-Jul-10 14:00N 25°46' W 080°11'0 0.0
2018-Jul-10 13:30N 25°46' W 080°11'0 0.0
2018-Jul-10 13:00N 25°46' W 080°11'0 0.0
2018-Jul-10 12:30N 25°46' W 080°11'0 0.0
2018-Jul-10 12:00N 25°46' W 080°11'0 0.0
2018-Jul-10 11:30N 25°46' W 080°11'0 0.0
2018-Jul-10 11:00N 25°46' W 080°11'0 0.0
2018-Jul-10 10:30N 25°46' W 080°11'0 0.0
2018-Jul-10 10:00N 25°46' W 080°11'0 0.0
2018-Jul-10 09:30N 25°46' W 080°11'0 0.0
2018-Jul-10 09:00N 25°46' W 080°11'0 0.0
2018-Jul-10 08:30N 25°46' W 080°11'0 0.0
2018-Jul-10 08:00N 25°46' W 080°11'0 0.0
2018-Jul-10 07:30N 25°46' W 080°11'0 0.0
2018-Jul-10 07:00N 25°46' W 080°11'0 0.0
2018-Jul-10 06:30N 25°46' W 080°11'0 0.0
2018-Jul-10 06:00N 25°46' W 080°11'0 0.0
2018-Jul-10 05:30N 25°46' W 080°11'0 0.0
2018-Jul-10 05:00N 25°46' W 080°11'0 0.0
2018-Jul-10 04:30N 25°46' W 080°11'0 0.0
2018-Jul-10 04:00N 25°46' W 080°11'0 0.0
2018-Jul-10 03:30N 25°46' W 080°11'  
Track history (hours):
 
Tides and Currents Weather Stations Pressure Air Temp Water Temp Dewpoint Dewpoint Depression Visibility Wind Speed Wind Dir Waves Ship Positions

San Gwann

Last reported at 2018-Jul-20 03:01 UTC. Time now 2018-Jul-20 03:09 UTC.
Position N 25°46' W 080°11'.

Length 51 m; draft 2.2 m.

Type: High speed craft. MMSI: 248984000.

Date/timePositionNaut miles runAvg speedWind from/ knotsBaromVisibWave heightAir tempDewpointWater temp
2018-Jul-20 03:01N 25°46' W 080°11'0 0.0
2018-Jul-20 02:30N 25°46' W 080°11'0 0.0
2018-Jul-20 02:01N 25°46' W 080°11'0 0.0
2018-Jul-20 01:31N 25°46' W 080°11'0 0.0
2018-Jul-20 01:01N 25°46' W 080°11'0 0.0
2018-Jul-20 00:31N 25°46' W 080°11'1 2.6
2018-Jul-20 00:01N 25°46' W 080°09'1019.8
2018-Jul-19 23:31N 25°46' W 079°58'13 1.5
2018-Jul-19 14:48N 25°46' W 079°44'826.0
2018-Jul-19 14:30N 25°46' W 079°52'1716.5
2018-Jul-19 13:30N 25°46' W 080°11'0 0.0
2018-Jul-19 13:00N 25°46' W 080°11'0 0.0
2018-Jul-19 12:30N 25°46' W 080°11'0 0.0
2018-Jul-19 12:00N 25°46' W 080°11'0 0.0
2018-Jul-19 11:30N 25°46' W 080°11'0 0.0
2018-Jul-19 11:00N 25°46' W 080°11'0 0.0
2018-Jul-19 10:30N 25°46' W 080°11'0 0.0
2018-Jul-19 10:01N 25°46' W 080°11'0 0.0
2018-Jul-19 09:30N 25°46' W 080°11'0 0.0
2018-Jul-19 09:00N 25°46' W 080°11'0 0.0
2018-Jul-19 08:31N 25°46' W 080°11'0 0.0
2018-Jul-19 08:00N 25°46' W 080°11'0 0.0
2018-Jul-19 07:31N 25°46' W 080°11'0 0.0
2018-Jul-19 07:00N 25°46' W 080°11'0 0.0
2018-Jul-19 06:30N 25°46' W 080°11'0 0.0
2018-Jul-19 06:00N 25°46' W 080°11'0 0.0
2018-Jul-19 05:30N 25°46' W 080°11'0 0.0
2018-Jul-19 05:00N 25°46' W 080°11'0 0.0
2018-Jul-19 04:30N 25°46' W 080°11'0 0.0
2018-Jul-19 04:00N 25°46' W 080°11'0 0.0
2018-Jul-19 03:30N 25°46' W 080°11'0 0.0
2018-Jul-19 03:00N 25°46' W 080°11'0 0.0
2018-Jul-19 02:30N 25°46' W 080°11'0 0.0
2018-Jul-19 02:00N 25°46' W 080°11'0 0.0
2018-Jul-19 01:30N 25°46' W 080°11'0 0.0
2018-Jul-19 01:00N 25°46' W 080°11'0 0.8
2018-Jul-19 00:30N 25°46' W 080°10'714.9
2018-Jul-19 00:00N 25°46' W 080°02'15 1.6
2018-Jul-18 14:56N 25°46' W 079°46'1024.4
2018-Jul-18 14:30N 25°46' W 079°57'1020.8
2018-Jul-18 14:00N 25°46' W 080°09'2 3.6
2018-Jul-18 13:31N 25°46' W 080°11'0 0.0
2018-Jul-18 13:00N 25°46' W 080°11'0 0.0
2018-Jul-18 12:31N 25°46' W 080°11'0 0.0
2018-Jul-18 12:00N 25°46' W 080°11'0 0.0
2018-Jul-18 11:30N 25°46' W 080°11'0 0.0
2018-Jul-18 10:30N 25°46' W 080°11'0 0.0
2018-Jul-18 10:00N 25°46' W 080°11'0 0.0
2018-Jul-18 09:30N 25°46' W 080°11'0 0.0
2018-Jul-18 09:01N 25°46' W 080°11'0 0.0
2018-Jul-18 08:31N 25°46' W 080°11'0 0.0
2018-Jul-18 08:00N 25°46' W 080°11'0 0.0
2018-Jul-18 07:30N 25°46' W 080°11'0 0.0
2018-Jul-18 07:00N 25°46' W 080°11'0 0.0
2018-Jul-18 06:31N 25°46' W 080°11'0 0.0
2018-Jul-18 06:00N 25°46' W 080°11'0 0.0
2018-Jul-18 05:30N 25°46' W 080°11'0 0.0
2018-Jul-18 05:00N 25°46' W 080°11'0 0.0
2018-Jul-18 04:30N 25°46' W 080°11'0 0.0
2018-Jul-18 04:00N 25°46' W 080°11'0 0.0
2018-Jul-18 03:30N 25°46' W 080°11'0 0.0
2018-Jul-18 03:00N 25°46' W 080°11'0 0.0
2018-Jul-18 02:30N 25°46' W 080°11'0 0.0
2018-Jul-18 02:00N 25°46' W 080°11'0 0.0
2018-Jul-18 01:30N 25°46' W 080°11'0 0.0
2018-Jul-18 01:00N 25°46' W 080°11'0 0.0
2018-Jul-18 00:30N 25°46' W 080°11'0 0.0
2018-Jul-18 00:00N 25°46' W 080°11'0 0.0
2018-Jul-17 23:30N 25°46' W 080°11'0 0.0
2018-Jul-17 23:00N 25°46' W 080°11'0 0.0
2018-Jul-17 22:30N 25°46' W 080°11'0 0.0
2018-Jul-17 22:01N 25°46' W 080°11'0 0.0
2018-Jul-17 21:30N 25°46' W 080°11'0 0.0
2018-Jul-17 21:00N 25°46' W 080°11'0 0.0
2018-Jul-17 20:30N 25°46' W 080°11'0 0.0
2018-Jul-17 20:00N 25°46' W 080°11'0 0.0
2018-Jul-17 19:30N 25°46' W 080°11'0 0.0
2018-Jul-17 19:00N 25°46' W 080°11'0 0.0
2018-Jul-17 18:31N 25°46' W 080°11'0 0.0
2018-Jul-17 18:00N 25°46' W 080°11'0 0.0
2018-Jul-17 17:30N 25°46' W 080°11'0 0.0
2018-Jul-17 17:00N 25°46' W 080°11'0 0.0
2018-Jul-17 16:30N 25°46' W 080°11'0 0.0
2018-Jul-17 16:00N 25°46' W 080°11'0 0.0
2018-Jul-17 15:30N 25°46' W 080°11'0 0.0
2018-Jul-17 15:00N 25°46' W 080°11'0 0.0
2018-Jul-17 14:30N 25°46' W 080°11'0 0.0
2018-Jul-17 14:00N 25°46' W 080°11'0 0.0
2018-Jul-17 13:30N 25°46' W 080°11'0 0.0
2018-Jul-17 13:00N 25°46' W 080°11'0 0.0
2018-Jul-17 12:30N 25°46' W 080°11'0 0.0
2018-Jul-17 12:00N 25°46' W 080°11'0 0.0
2018-Jul-17 11:30N 25°46' W 080°11'0 0.0
2018-Jul-17 11:00N 25°46' W 080°11'0 0.0
2018-Jul-17 10:30N 25°46' W 080°11'0 0.0
2018-Jul-17 10:00N 25°46' W 080°11'0 0.0
2018-Jul-17 09:30N 25°46' W 080°11'0 0.0
2018-Jul-17 09:00N 25°46' W 080°11'0 0.0
2018-Jul-17 08:30N 25°46' W 080°11'0 0.0
2018-Jul-17 08:00N 25°46' W 080°11'0 0.0
2018-Jul-17 07:30N 25°46' W 080°11'0 0.0
2018-Jul-17 07:00N 25°46' W 080°11'0 0.0
2018-Jul-17 06:30N 25°46' W 080°11'0 0.0
2018-Jul-17 06:00N 25°46' W 080°11'0 0.0
2018-Jul-17 05:30N 25°46' W 080°11'0 0.0
2018-Jul-17 05:00N 25°46' W 080°11'0 0.0
2018-Jul-17 04:30N 25°46' W 080°11'0 0.0
2018-Jul-17 04:00N 25°46' W 080°11'0 0.0
2018-Jul-17 03:30N 25°46' W 080°11'0 0.0
2018-Jul-17 03:00N 25°46' W 080°11'0 0.0
2018-Jul-17 02:30N 25°46' W 080°11'0 0.0
2018-Jul-17 02:00N 25°46' W 080°11'0 0.0
2018-Jul-17 01:30N 25°46' W 080°11'0 0.0
2018-Jul-17 01:00N 25°46' W 080°11'0 0.0
2018-Jul-17 00:30N 25°46' W 080°11'1614.6
2018-Jul-16 23:27N 25°46' W 079°53'11 1.3
2018-Jul-16 14:53N 25°46' W 079°41'1026.5
2018-Jul-16 14:31N 25°46' W 079°52'1326.0
2018-Jul-16 14:01N 25°46' W 080°06'4 7.9
2018-Jul-16 13:30N 25°46' W 080°11'0 0.0
2018-Jul-16 13:00N 25°46' W 080°11'0 0.0
2018-Jul-16 12:30N 25°46' W 080°11'0 0.0
2018-Jul-16 12:00N 25°46' W 080°11'0 0.0
2018-Jul-16 11:30N 25°46' W 080°11'0 0.0
2018-Jul-16 11:00N 25°46' W 080°11'0 0.0
2018-Jul-16 10:31N 25°46' W 080°11'0 0.0
2018-Jul-16 10:01N 25°46' W 080°11'0 0.0
2018-Jul-16 09:30N 25°46' W 080°11'0 0.0
2018-Jul-16 09:00N 25°46' W 080°11'0 0.0
2018-Jul-16 08:30N 25°46' W 080°11'0 0.0
2018-Jul-16 08:00N 25°46' W 080°11'0 0.0
2018-Jul-16 07:30N 25°46' W 080°11'0 0.0
2018-Jul-16 07:00N 25°46' W 080°11'0 0.0
2018-Jul-16 06:30N 25°46' W 080°11'0 0.0
2018-Jul-16 05:59N 25°46' W 080°11'0 0.0
2018-Jul-16 05:30N 25°46' W 080°11'0 0.0
2018-Jul-16 05:00N 25°46' W 080°11'0 0.0
2018-Jul-16 04:30N 25°46' W 080°11'0 0.0
2018-Jul-16 04:00N 25°46' W 080°11'0 0.0
2018-Jul-16 03:30N 25°46' W 080°11'0 0.0
2018-Jul-16 03:00N 25°46' W 080°11'0 0.0
2018-Jul-16 02:30N 25°46' W 080°11'0 0.0
2018-Jul-16 02:00N 25°46' W 080°11'0 0.0
2018-Jul-16 01:30N 25°46' W 080°11'0 0.0
2018-Jul-16 01:00N 25°46' W 080°11'0 0.1
2018-Jul-16 00:30N 25°46' W 080°11'612.4
2018-Jul-16 00:00N 25°46' W 080°04'16 1.6
2018-Jul-15 14:09N 25°46' W 079°46'426.3
2018-Jul-15 14:00N 25°46' W 079°51'1326.3
2018-Jul-15 13:31N 25°46' W 080°05'5 9.9
2018-Jul-15 13:00N 25°46' W 080°11'0 0.0
2018-Jul-15 12:30N 25°46' W 080°11'0 0.0
2018-Jul-15 12:00N 25°46' W 080°11'0 0.0
2018-Jul-15 11:30N 25°46' W 080°11'0 0.0
2018-Jul-15 11:00N 25°46' W 080°11'0 0.0
2018-Jul-15 10:30N 25°46' W 080°11'0 0.0
2018-Jul-15 10:00N 25°46' W 080°11'0 0.0
2018-Jul-15 09:30N 25°46' W 080°11'0 0.0
2018-Jul-15 09:00N 25°46' W 080°11'0 0.0
2018-Jul-15 08:30N 25°46' W 080°11'0 0.0
2018-Jul-15 08:00N 25°46' W 080°11'0 0.0
2018-Jul-15 07:30N 25°46' W 080°11'0 0.0
2018-Jul-15 07:00N 25°46' W 080°11'0 0.0
2018-Jul-15 06:30N 25°46' W 080°11'0 0.0
2018-Jul-15 06:00N 25°46' W 080°11'0 0.0
2018-Jul-15 05:30N 25°46' W 080°11'0 0.0
2018-Jul-15 05:00N 25°46' W 080°11'0 0.0
2018-Jul-15 04:30N 25°46' W 080°11'0 0.0
2018-Jul-15 04:00N 25°46' W 080°11'0 0.0
2018-Jul-15 03:30N 25°46' W 080°11'0 0.0
2018-Jul-15 03:00N 25°46' W 080°11'0 0.0
2018-Jul-15 02:30N 25°46' W 080°11'0 0.0
2018-Jul-15 02:00N 25°46' W 080°11'0 0.0
2018-Jul-15 01:30N 25°46' W 080°11'0 0.0
2018-Jul-15 01:00N 25°46' W 080°11'0 0.0
2018-Jul-15 00:30N 25°46' W 080°11'4 7.9
2018-Jul-15 00:00N 25°46' W 080°06'19 2.1
2018-Jul-14 14:59N 25°46' W 079°45'2222.3
2018-Jul-14 14:01N 25°46' W 080°09'1 2.9
2018-Jul-14 13:30N 25°46' W 080°11'0 0.0
2018-Jul-14 13:00N 25°46' W 080°11'0 0.0
2018-Jul-14 12:30N 25°46' W 080°11'0 0.0
2018-Jul-14 12:00N 25°46' W 080°11'0 0.0
2018-Jul-14 11:30N 25°46' W 080°11'0 0.0
2018-Jul-14 11:00N 25°46' W 080°11'0 0.0
2018-Jul-14 10:30N 25°46' W 080°11'0 0.0
2018-Jul-14 10:00N 25°46' W 080°11'0 0.0
2018-Jul-14 09:30N 25°46' W 080°11'0 0.0
2018-Jul-14 09:01N 25°46' W 080°11'0 0.0
2018-Jul-14 08:31N 25°46' W 080°11'0 0.0
2018-Jul-14 08:00N 25°46' W 080°11'0 0.0
2018-Jul-14 07:30N 25°46' W 080°11'0 0.0
2018-Jul-14 07:00N 25°46' W 080°11'0 0.0
2018-Jul-14 06:31N 25°46' W 080°11'0 0.0
2018-Jul-14 06:00N 25°46' W 080°11'0 0.0
2018-Jul-14 05:30N 25°46' W 080°11'0 0.0
2018-Jul-14 05:00N 25°46' W 080°11'0 0.0
2018-Jul-14 04:30N 25°46' W 080°11'0 0.0
2018-Jul-14 04:00N 25°46' W 080°11'0 0.0
2018-Jul-14 03:30N 25°46' W 080°11'0 0.0
2018-Jul-14 03:00N 25°46' W 080°11'0 0.0
2018-Jul-14 02:30N 25°46' W 080°11'0 0.0
2018-Jul-14 02:01N 25°46' W 080°11'0 0.0
2018-Jul-14 01:29N 25°46' W 080°11'1 2.1
2018-Jul-14 01:01N 25°46' W 080°10'1019.0
2018-Jul-14 00:30N 25°46' W 079°59'12 1.3
2018-Jul-13 14:56N 25°46' W 079°46'1024.5
2018-Jul-13 14:30N 25°46' W 079°57'1211.9
2018-Jul-13 13:30N 25°46' W 080°11'0 0.0
2018-Jul-13 13:00N 25°46' W 080°11'0 0.0
2018-Jul-13 12:30N 25°46' W 080°11'0 0.0
2018-Jul-13 12:00N 25°46' W 080°11'0 0.0
2018-Jul-13 11:29N 25°46' W 080°11'0 0.0
2018-Jul-13 11:00N 25°46' W 080°11'0 0.0
2018-Jul-13 10:30N 25°46' W 080°11'0 0.0
2018-Jul-13 10:00N 25°46' W 080°11'0 0.0
2018-Jul-13 09:30N 25°46' W 080°11'0 0.0
2018-Jul-13 09:00N 25°46' W 080°11'0 0.0
2018-Jul-13 08:30N 25°46' W 080°11'0 0.0
2018-Jul-13 08:00N 25°46' W 080°11'0 0.0
2018-Jul-13 07:30N 25°46' W 080°11'0 0.0
2018-Jul-13 07:00N 25°46' W 080°11'0 0.0
2018-Jul-13 06:30N 25°46' W 080°11'0 0.0
2018-Jul-13 06:00N 25°46' W 080°11'0 0.0
2018-Jul-13 05:30N 25°46' W 080°11'0 0.0
2018-Jul-13 05:00N 25°46' W 080°11'0 0.0
2018-Jul-13 04:30N 25°46' W 080°11'0 0.0
2018-Jul-13 04:00N 25°46' W 080°11'0 0.0
2018-Jul-13 03:30N 25°46' W 080°11'0 0.0
2018-Jul-13 03:00N 25°46' W 080°11'0 0.0
2018-Jul-13 02:30N 25°46' W 080°11'0 0.0
2018-Jul-13 02:00N 25°46' W 080°11'0 0.0
2018-Jul-13 01:30N 25°46' W 080°11'0 0.0
2018-Jul-13 01:00N 25°46' W 080°11'0 0.0
2018-Jul-13 00:30N 25°46' W 080°11'2 4.2
2018-Jul-13 00:00N 25°46' W 080°08'20 2.0
2018-Jul-12 14:09N 25°46' W 079°46'430.7
2018-Jul-12 14:00N 25°46' W 079°51'1429.0
2018-Jul-12 13:30N 25°46' W 080°07'3 6.8
2018-Jul-12 13:00N 25°46' W 080°11'0 0.0
2018-Jul-12 12:30N 25°46' W 080°11'0 0.0
2018-Jul-12 12:00N 25°46' W 080°11'0 0.0
2018-Jul-12 11:30N 25°46' W 080°11'0 0.0
2018-Jul-12 11:00N 25°46' W 080°11'0 0.0
2018-Jul-12 10:30N 25°46' W 080°11'0 0.0
2018-Jul-12 10:00N 25°46' W 080°11'0 0.0
2018-Jul-12 09:30N 25°46' W 080°11'0 0.0
2018-Jul-12 09:00N 25°46' W 080°11'0 0.0
2018-Jul-12 08:30N 25°46' W 080°11'0 0.0
2018-Jul-12 08:00N 25°46' W 080°11'0 0.0
2018-Jul-12 07:30N 25°46' W 080°11'0 0.0
2018-Jul-12 07:00N 25°46' W 080°11'0 0.0
2018-Jul-12 06:30N 25°46' W 080°11'0 0.0
2018-Jul-12 06:00N 25°46' W 080°11'0 0.0
2018-Jul-12 05:30N 25°46' W 080°11'0 0.0
2018-Jul-12 05:00N 25°46' W 080°11'0 0.0
2018-Jul-12 04:30N 25°46' W 080°11'0 0.0
2018-Jul-12 04:00N 25°46' W 080°11'0 0.0
2018-Jul-12 03:30N 25°46' W 080°11'0 0.0
2018-Jul-12 03:00N 25°46' W 080°11'0 0.0
2018-Jul-12 02:30N 25°46' W 080°11'0 0.0
2018-Jul-12 02:00N 25°46' W 080°11'0 0.0
2018-Jul-12 01:30N 25°46' W 080°11'0 0.0
2018-Jul-12 01:00N 25°46' W 080°11'0 0.0
2018-Jul-12 00:30N 25°46' W 080°11'3 7.0
2018-Jul-12 00:01N 25°46' W 080°07'21 2.2
2018-Jul-11 14:35N 25°46' W 079°43'225.3
2018-Jul-11 14:30N 25°46' W 079°45'1326.0
2018-Jul-11 14:00N 25°46' W 079°60'918.6
2018-Jul-11 13:30N 25°46' W 080°10'1 1.0
2018-Jul-11 13:00N 25°46' W 080°11'0 0.0
2018-Jul-11 12:30N 25°46' W 080°11'0 0.0
2018-Jul-11 12:00N 25°46' W 080°11'0 0.0
2018-Jul-11 11:30N 25°46' W 080°11'0 0.0
2018-Jul-11 11:00N 25°46' W 080°11'0 0.0
2018-Jul-11 10:30N 25°46' W 080°11'0 0.0
2018-Jul-11 10:00N 25°46' W 080°11'0 0.0
2018-Jul-11 09:30N 25°46' W 080°11'0 0.0
2018-Jul-11 09:00N 25°46' W 080°11'0 0.0
2018-Jul-11 08:30N 25°46' W 080°11'0 0.0
2018-Jul-11 08:00N 25°46' W 080°11'0 0.0
2018-Jul-11 07:30N 25°46' W 080°11'0 0.0
2018-Jul-11 07:00N 25°46' W 080°11'0 0.0
2018-Jul-11 06:30N 25°46' W 080°11'0 0.0
2018-Jul-11 06:01N 25°46' W 080°11'0 0.0
2018-Jul-11 05:30N 25°46' W 080°11'0 0.0
2018-Jul-11 05:00N 25°46' W 080°11'0 0.0
2018-Jul-11 04:30N 25°46' W 080°11'0 0.0
2018-Jul-11 04:00N 25°46' W 080°11'0 0.0
2018-Jul-11 03:30N 25°46' W 080°11'0 0.0
2018-Jul-11 03:00N 25°46' W 080°11'0 0.0
2018-Jul-11 02:30N 25°46' W 080°11'0 0.0
2018-Jul-11 01:59N 25°46' W 080°11'0 0.0
2018-Jul-11 01:30N 25°46' W 080°11'0 0.0
2018-Jul-11 01:00N 25°46' W 080°11'0 0.0
2018-Jul-11 00:30N 25°46' W 080°11'0 0.0
2018-Jul-11 00:01N 25°46' W 080°11'0 0.0
2018-Jul-10 23:30N 25°46' W 080°11'0 0.0
2018-Jul-10 23:00N 25°46' W 080°11'0 0.0
2018-Jul-10 22:30N 25°46' W 080°11'0 0.0
2018-Jul-10 22:01N 25°46' W 080°11'0 0.0
2018-Jul-10 21:30N 25°46' W 080°11'0 0.0
2018-Jul-10 21:00N 25°46' W 080°11'0 0.0
2018-Jul-10 20:30N 25°46' W 080°11'0 0.0
2018-Jul-10 20:00N 25°46' W 080°11'0 0.0
2018-Jul-10 19:30N 25°46' W 080°11'0 0.0
2018-Jul-10 19:00N 25°46' W 080°11'0 0.0
2018-Jul-10 18:30N 25°46' W 080°11'0 0.0
2018-Jul-10 18:00N 25°46' W 080°11'0 0.0
2018-Jul-10 17:30N 25°46' W 080°11'0 0.0
2018-Jul-10 17:00N 25°46' W 080°11'0 0.0
2018-Jul-10 16:30N 25°46' W 080°11'0 0.0
2018-Jul-10 16:00N 25°46' W 080°11'0 0.0
2018-Jul-10 15:30N 25°46' W 080°11'0 0.0
2018-Jul-10 15:00N 25°46' W 080°11'0 0.0
2018-Jul-10 14:30N 25°46' W 080°11'0 0.0
2018-Jul-10 14:00N 25°46' W 080°11'0 0.0
2018-Jul-10 13:30N 25°46' W 080°11'0 0.0
2018-Jul-10 13:00N 25°46' W 080°11'0 0.0
2018-Jul-10 12:30N 25°46' W 080°11'0 0.0
2018-Jul-10 12:00N 25°46' W 080°11'0 0.0
2018-Jul-10 11:30N 25°46' W 080°11'0 0.0
2018-Jul-10 11:00N 25°46' W 080°11'0 0.0
2018-Jul-10 10:30N 25°46' W 080°11'0 0.0
2018-Jul-10 10:00N 25°46' W 080°11'0 0.0
2018-Jul-10 09:30N 25°46' W 080°11'0 0.0
2018-Jul-10 09:00N 25°46' W 080°11'0 0.0
2018-Jul-10 08:30N 25°46' W 080°11'0 0.0
2018-Jul-10 08:00N 25°46' W 080°11'0 0.0
2018-Jul-10 07:30N 25°46' W 080°11'0 0.0
2018-Jul-10 07:00N 25°46' W 080°11'0 0.0
2018-Jul-10 06:30N 25°46' W 080°11'0 0.0
2018-Jul-10 06:00N 25°46' W 080°11'0 0.0
2018-Jul-10 05:30N 25°46' W 080°11'0 0.0
2018-Jul-10 05:00N 25°46' W 080°11'0 0.0
2018-Jul-10 04:30N 25°46' W 080°11'0 0.0
2018-Jul-10 04:00N 25°46' W 080°11'0 0.0
2018-Jul-10 03:30N 25°46' W 080°11'  

Dump ship's entire track history